This is the latest recevied weather packets stored in our database for station/object dl9mfl-6. If no packets are shown the sender has not sent any weather packets the latest 10 day(s).
| Time | Temp. | Humidity | Pressure | Rain* | Wind** | Luminosity | Snow |
|---|---|---|---|---|---|---|---|
| 1777738454 | 23.33° C | 38% | 1018.7 hPa | 0 mm | - | - | - |
| 1777738450 | 23.33° C | 35% | 1018.8 hPa | 0 mm | - | - | - |
| 1777738446 | 23.33° C | 35% | 1018.8 hPa | 0 mm | - | - | - |
| 1777738442 | 24.44° C | 33% | 1015.5 hPa | 0 mm | - | - | - |
| 1777738429 | 23.33° C | 36% | 1018.8 hPa | 0 mm | - | - | - |
| 1777738425 | 23.33° C | 36% | 1018.8 hPa | 0 mm | - | - | - |
| 1777738421 | 24.44° C | 33% | 1015.5 hPa | 0 mm | - | - | - |
| 1777738417 | 24.44° C | 34% | 1015.5 hPa | 0 mm | - | - | - |
| 1777738413 | 24.44° C | 32% | 1015.6 hPa | 0 mm | - | - | - |
| 1777738409 | 24.44° C | 32% | 1015.5 hPa | 0 mm | - | - | - |
| 1777738142 | 24.44° C | 33% | 1015.6 hPa | 0 mm | - | - | - |
| 1777738138 | 23.33° C | 36% | 1018.8 hPa | 0 mm | - | - | - |
| 1777738134 | 23.33° C | 36% | 1018.8 hPa | 0 mm | - | - | - |
| 1777738125 | 23.33° C | 36% | 1018.8 hPa | 0 mm | - | - | - |
| 1777738121 | 23.33° C | 36% | 1018.8 hPa | 0 mm | - | - | - |
| 1777738116 | 23.33° C | 37% | 1018.8 hPa | 0 mm | - | - | - |
| 1777738108 | 23.33° C | 37% | 1018.9 hPa | 0 mm | - | - | - |
| 1777738104 | 23.33° C | 37% | 1018.8 hPa | 0 mm | - | - | - |
| 1777738100 | 23.33° C | 37% | 1018.9 hPa | 0 mm | - | - | - |
| 1777738096 | 23.33° C | 36% | 1018.9 hPa | 0 mm | - | - | - |
| 1777738092 | 23.33° C | 36% | 1018.9 hPa | 0 mm | - | - | - |
| 1777738084 | 24.44° C | 32% | 1015.6 hPa | 0 mm | - | - | - |
| 1777738080 | 23.33° C | 37% | 1018.9 hPa | 0 mm | - | - | - |
| 1777738076 | 23.33° C | 36% | 1018.9 hPa | 0 mm | - | - | - |
| 1777738072 | 23.33° C | 36% | 1018.9 hPa | 0 mm | - | - | - |
* Rain latest hour (hover to see other rain measurements)
** Current wind speed in m/s (hover to see current wind gust speed)